Detalii statie SOPEMA [00001CFB]

Toti senzorii

Date Temperatura solului [C]Precipitatii [mm]Voltaj baterie [mV]Leaf Wetness [Min]HC Air temperature [C]HC Relative humidity [%]Punctul de roua [C]
medieminmaxsumaultimatimpmedieminmaxmediemediemin
2017-10-20 09:00:00 0 7010 9.6 7.94 10.72 100 9.5 7.9
2017-10-20 10:00:00 0 7274 12.47 11.1 13.68 100 12.4 11.1
2017-10-20 11:00:00 0 7254 15.64 14.06 17.16 93.99 14.5 14
2017-10-20 12:00:00 0 7254 18.86 17.44 19.62 76.08 14.4 13.9
2017-10-20 13:00:00 0 7274 20.9 19.57 22.38 64.47 13.7 13.5
2017-10-20 14:00:00 0 7246 23.84 22.55 24.84 52.5 13.3 12.6
2017-10-20 15:00:00 0 7254 25.06 24.71 25.39 48.57 13.2 12.3
2017-10-20 16:00:00 0 7236 25.04 24.78 25.59 46.21 12.4 11.8
2017-10-20 17:00:00 0 7128 24.15 23.21 25.04 47.7 12.1 11.4
2017-10-20 18:00:00 0 7030 22.35 19.77 23.53 57.16 13.2 12.7
2017-10-20 19:00:00 0 6952 16.94 15.64 19.06 78.79 13 12.5
2017-10-20 20:00:00 0 6932 15.37 13.58 16.75 86.1 12.8 12.1
2017-10-20 21:00:00 0 6932 14.99 13.32 15.91 91.22 13.4 12.5
2017-10-20 22:00:00 0 6914 13.85 11.9 14.67 99.44 13.6 11.9
2017-10-20 23:00:00 0 6914 11.04 10.56 11.79 100 10.9 10.5
2017-10-21 00:00:00 0 6904 10.64 9.92 11.61 100 10.6 9.9
2017-10-21 01:00:00 0 6884 9.9 9.31 10.89 100 9.8 9.3
2017-10-21 02:00:00 0 6884 8.94 8.47 9.45 100 8.9 8.4
2017-10-21 03:00:00 0 6874 9.51 8.27 10.29 100 9.4 8.2
2017-10-21 04:00:00 0 6884 7.87 7.36 8.45 100 7.8 7.3
2017-10-21 05:00:00 0 6854 8.91 7.73 9.27 100 8.8 7.7
2017-10-21 06:00:00 0.2 6854 8.71 8.46 9.31 100 8.6 8.4
2017-10-21 07:00:00 0 6864 9.03 8.72 9.24 100 8.9 8.7
2017-10-21 08:00:00 0 6844 9.23 9.08 9.38 100 9.1 9
2017-10-21 09:00:00 0 6864 9.84 9.18 10.53 100 9.8 9.1
2017-10-21 10:00:00 0 6884 11.08 10.54 11.87 100 11 10.5
2017-10-21 11:00:00 0 6992 12.88 11.99 13.68 100 12.8 11.9
2017-10-21 12:00:00 0 7166 14.39 13.75 14.99 100 14.3 13.7
2017-10-21 13:00:00 0 7166 15.57 14.87 16.84 100 15.5 14.8
2017-10-21 14:00:00 0 7274 19.06 17.63 20.81 91.49 17.5 16.8
2017-10-21 15:00:00 0 7264 19.96 18.75 21.07 83.59 16.9 16.5
2017-10-21 16:00:00 0 7246 20.78 20.06 21.66 78.01 16.6 16.3
2017-10-21 17:00:00 0 7166 20.55 19.49 21.51 79 16.6 16.2
2017-10-21 18:00:00 0 7070 19 16.94 20.13 87.3 16.6 16.4
2017-10-21 19:00:00 0 6992 15.48 14.79 16.46 100 15.4 14.7
2017-10-21 20:00:00 0 6932 14.74 14.38 15 100 14.6 14.3
2017-10-21 21:00:00 0 6922 14.31 14.07 14.47 100 14.2 14
2017-10-21 22:00:00 0 6914 13.86 13.57 14.09 100 13.8 13.5
2017-10-21 23:00:00 0 6904 13.49 13.29 13.61 100 13.4 13.2
2017-10-22 00:00:00 0 6914 13.3 13.21 13.5 100 13.2 13.2
2017-10-22 01:00:00 0 6904 13.15 12.86 13.33 100 13.1 12.8
2017-10-22 02:00:00 0 6884 12.46 11.7 12.95 100 12.4 11.7
2017-10-22 03:00:00 0 6894 11.3 10.76 12.03 100 11.2 10.7
2017-10-22 04:00:00 0 6864 11.15 10.55 11.97 100 11.1 10.5
2017-10-22 05:00:00 0.2 6874 12.53 12.28 12.62 100 12.4 12.2
2017-10-22 06:00:00 0 6874 12.52 12.35 12.63 100 12.4 12.3
2017-10-22 07:00:00 0 6854 11.86 11.41 12.26 100 11.8 11.4
2017-10-22 08:00:00 0 6864 11.44 11.31 11.59 100 11.3 11.3